Armona, California
Current Conditions -  °F | °C
As of 5:53 PM on Friday 31 Oct 2014 (Local Time) from KHJO Reporting Station
Broken Clouds Broken Clouds  
Wind Chill: 71°   Ceiling: 6000
Heat Index: 71°   Visibility: 8mi
Dew Point: 47°   Wind: 13mph
Humidity: 42%   Direction: 260°W
Pressure: 29.74"   Gusts: NA
Location:  36.32°N, 119.71°W
Report Text: KHJO 010053Z AUTO 26011KT 8SM BKN060 22/08 A2974 RMK AO2 SLP070 T02170083
Loading
Personal Weather Stations






























Interactive Weather Map
Tropical Storm Tracking
New forecast layout! Learn more

10-Day Weather Forecast

Advertisements
Track Severe Weather on mobile